sensor_id;sensor_type;location;lat;lon;timestamp;noise_LAeq;noise_LA_min;noise_LA_max;noise_LA01;noise_LA95
186;Laerm;55473;48.800;9.002;2023-05-10T00:01:13;44.04;39.10;64.61;;
186;Laerm;55473;48.800;9.002;2023-05-10T00:03:39;43.66;38.64;63.88;;
186;Laerm;55473;48.800;9.002;2023-05-10T00:06:05;43.09;38.62;63.48;;
186;Laerm;55473;48.800;9.002;2023-05-10T00:08:31;44.67;38.81;63.17;;
186;Laerm;55473;48.800;9.002;2023-05-10T00:10:57;43.52;38.97;64.22;;
186;Laerm;55473;48.800;9.002;2023-05-10T00:13:23;43.01;38.24;59.92;;
186;Laerm;55473;48.800;9.002;2023-05-10T00:15:49;44.39;38.87;65.34;;
186;Laerm;55473;48.800;9.002;2023-05-10T00:18:16;43.32;38.52;62.43;;
186;Laerm;55473;48.800;9.002;2023-05-10T00:20:42;42.01;37.94;62.23;;
186;Laerm;55473;48.800;9.002;2023-05-10T00:23:08;43.03;38.07;65.28;;
186;Laerm;55473;48.800;9.002;2023-05-10T00:25:33;42.22;38.15;66.67;;
186;Laerm;55473;48.800;9.002;2023-05-10T00:27:59;42.27;37.72;65.38;;
186;Laerm;55473;48.800;9.002;2023-05-10T00:30:26;41.12;37.47;59.38;;
186;Laerm;55473;48.800;9.002;2023-05-10T00:32:52;41.01;37.15;60.89;;
186;Laerm;55473;48.800;9.002;2023-05-10T00:35:18;40.96;37.20;63.46;;
186;Laerm;55473;48.800;9.002;2023-05-10T00:37:44;40.05;37.13;58.34;;
186;Laerm;55473;48.800;9.002;2023-05-10T00:40:11;40.11;36.90;59.33;;
186;Laerm;55473;48.800;9.002;2023-05-10T00:42:37;40.50;36.86;64.72;;
186;Laerm;55473;48.800;9.002;2023-05-10T00:45:03;39.69;36.52;55.66;;
186;Laerm;55473;48.800;9.002;2023-05-10T00:47:29;39.17;36.88;56.29;;
186;Laerm;55473;48.800;9.002;2023-05-10T00:49:56;41.79;36.87;58.06;;
186;Laerm;55473;48.800;9.002;2023-05-10T00:52:22;50.97;43.48;64.88;;
186;Laerm;55473;48.800;9.002;2023-05-10T00:54:52;47.56;37.18;60.82;;
186;Laerm;55473;48.800;9.002;2023-05-10T00:57:19;38.99;36.72;55.67;;
186;Laerm;55473;48.800;9.002;2023-05-10T00:59:54;39.87;37.17;54.44;;
186;Laerm;55473;48.800;9.002;2023-05-10T01:02:28;39.42;37.17;53.86;;
186;Laerm;55473;48.800;9.002;2023-05-10T01:04:55;52.48;36.97;66.09;;
186;Laerm;55473;48.800;9.002;2023-05-10T01:07:21;46.68;37.01;59.85;;
186;Laerm;55473;48.800;9.002;2023-05-10T01:09:47;38.99;36.49;53.46;;
186;Laerm;55473;48.800;9.002;2023-05-10T01:12:13;38.54;36.61;51.29;;
186;Laerm;55473;48.800;9.002;2023-05-10T01:14:40;38.53;36.58;51.62;;
186;Laerm;55473;48.800;9.002;2023-05-10T01:17:07;38.78;36.35;58.68;;
186;Laerm;55473;48.800;9.002;2023-05-10T01:19:35;38.10;36.12;47.52;;
186;Laerm;55473;48.800;9.002;2023-05-10T01:31:35;38.55;36.22;50.49;;
186;Laerm;55473;48.800;9.002;2023-05-10T01:34:16;38.87;36.97;53.95;;
186;Laerm;55473;48.800;9.002;2023-05-10T01:42:26;38.48;36.53;45.92;;
186;Laerm;55473;48.800;9.002;2023-05-10T01:45:41;38.47;36.51;49.89;;
186;Laerm;55473;48.800;9.002;2023-05-10T01:48:11;38.64;36.48;52.44;;
186;Laerm;55473;48.800;9.002;2023-05-10T01:50:43;38.92;36.71;49.41;;
186;Laerm;55473;48.800;9.002;2023-05-10T01:53:13;45.38;36.92;59.67;;
186;Laerm;55473;48.800;9.002;2023-05-10T01:55:48;38.72;36.75;49.52;;
186;Laerm;55473;48.800;9.002;2023-05-10T01:58:31;38.72;36.88;44.55;;
186;Laerm;55473;48.800;9.002;2023-05-10T02:01:03;39.31;36.93;52.39;;
186;Laerm;55473;48.800;9.002;2023-05-10T02:03:32;42.75;36.88;56.09;;
186;Laerm;55473;48.800;9.002;2023-05-10T02:05:59;38.86;36.82;51.15;;
186;Laerm;55473;48.800;9.002;2023-05-10T02:08:26;38.57;36.51;51.45;;
186;Laerm;55473;48.800;9.002;2023-05-10T02:10:56;38.43;36.60;43.26;;
186;Laerm;55473;48.800;9.002;2023-05-10T02:13:25;39.49;37.09;49.98;;
186;Laerm;55473;48.800;9.002;2023-05-10T02:15:53;38.93;36.89;55.80;;
186;Laerm;55473;48.800;9.002;2023-05-10T02:18:23;38.94;36.54;53.12;;
186;Laerm;55473;48.800;9.002;2023-05-10T02:20:52;38.50;36.62;53.81;;
186;Laerm;55473;48.800;9.002;2023-05-10T02:23:20;38.77;36.83;54.13;;
186;Laerm;55473;48.800;9.002;2023-05-10T02:25:48;38.30;36.17;48.39;;
186;Laerm;55473;48.800;9.002;2023-05-10T02:28:17;39.24;36.73;47.70;;
186;Laerm;55473;48.800;9.002;2023-05-10T02:30:44;39.77;36.84;63.65;;
186;Laerm;55473;48.800;9.002;2023-05-10T02:33:11;39.23;36.27;51.45;;
186;Laerm;55473;48.800;9.002;2023-05-10T02:35:38;39.19;36.86;45.74;;
186;Laerm;55473;48.800;9.002;2023-05-10T02:38:07;39.37;36.84;46.63;;
186;Laerm;55473;48.800;9.002;2023-05-10T02:40:39;41.05;37.54;48.14;;
186;Laerm;55473;48.800;9.002;2023-05-10T02:43:25;40.17;37.13;54.58;;
186;Laerm;55473;48.800;9.002;2023-05-10T02:46:10;40.30;37.35;57.66;;
186;Laerm;55473;48.800;9.002;2023-05-10T02:48:56;45.19;37.45;57.39;;
186;Laerm;55473;48.800;9.002;2023-05-10T02:51:47;42.72;37.33;55.41;;
186;Laerm;55473;48.800;9.002;2023-05-10T02:54:43;55.66;38.27;67.05;;
186;Laerm;55473;48.800;9.002;2023-05-10T02:57:33;42.97;37.72;55.93;;
186;Laerm;55473;48.800;9.002;2023-05-10T03:00:18;50.17;37.51;73.45;;
186;Laerm;55473;48.800;9.002;2023-05-10T03:03:03;53.24;37.91;72.50;;
186;Laerm;55473;48.800;9.002;2023-05-10T03:05:47;55.92;39.07;72.02;;
186;Laerm;55473;48.800;9.002;2023-05-10T03:08:32;55.07;38.46;73.15;;
186;Laerm;55473;48.800;9.002;2023-05-10T03:15:15;56.10;40.63;71.21;;
186;Laerm;55473;48.800;9.002;2023-05-10T03:18:10;57.32;41.33;74.30;;
186;Laerm;55473;48.800;9.002;2023-05-10T03:21:04;55.40;41.07;73.29;;
186;Laerm;55473;48.800;9.002;2023-05-10T03:24:03;55.54;39.79;69.81;;
186;Laerm;55473;48.800;9.002;2023-05-10T03:26:55;57.20;40.67;70.69;;
186;Laerm;55473;48.800;9.002;2023-05-10T03:29:35;56.87;42.15;70.47;;
186;Laerm;55473;48.800;9.002;2023-05-10T03:32:02;56.73;42.51;67.34;;
186;Laerm;55473;48.800;9.002;2023-05-10T03:34:31;57.34;42.94;69.48;;
186;Laerm;55473;48.800;9.002;2023-05-10T03:36:57;56.79;43.07;69.83;;
186;Laerm;55473;48.800;9.002;2023-05-10T03:39:23;55.43;42.20;69.55;;
186;Laerm;55473;48.800;9.002;2023-05-10T03:41:50;54.93;41.52;69.34;;
186;Laerm;55473;48.800;9.002;2023-05-10T03:44:16;54.44;40.76;68.64;;
186;Laerm;55473;48.800;9.002;2023-05-10T03:46:42;50.35;40.68;62.15;;
186;Laerm;55473;48.800;9.002;2023-05-10T03:49:07;51.95;40.77;62.62;;
186;Laerm;55473;48.800;9.002;2023-05-10T03:51:33;51.09;40.19;63.49;;
186;Laerm;55473;48.800;9.002;2023-05-10T03:53:59;51.03;40.52;61.66;;
186;Laerm;55473;48.800;9.002;2023-05-10T03:56:25;49.41;40.36;61.71;;
186;Laerm;55473;48.800;9.002;2023-05-10T03:58:51;51.87;40.82;70.22;;
186;Laerm;55473;48.800;9.002;2023-05-10T04:01:17;50.63;40.30;64.29;;
186;Laerm;55473;48.800;9.002;2023-05-10T04:03:43;51.70;41.12;64.01;;
186;Laerm;55473;48.800;9.002;2023-05-10T04:06:08;52.43;40.29;66.01;;
186;Laerm;55473;48.800;9.002;2023-05-10T04:08:37;52.16;41.16;64.65;;
186;Laerm;55473;48.800;9.002;2023-05-10T04:11:11;50.98;39.86;72.58;;
186;Laerm;55473;48.800;9.002;2023-05-10T04:13:38;49.63;40.50;62.26;;
186;Laerm;55473;48.800;9.002;2023-05-10T04:16:05;55.45;41.14;68.77;;
186;Laerm;55473;48.800;9.002;2023-05-10T04:18:31;54.94;39.36;69.93;;
186;Laerm;55473;48.800;9.002;2023-05-10T04:20:57;55.61;42.25;71.90;;
186;Laerm;55473;48.800;9.002;2023-05-10T04:23:23;54.88;41.63;69.27;;
186;Laerm;55473;48.800;9.002;2023-05-10T04:25:49;55.10;40.51;69.33;;
186;Laerm;55473;48.800;9.002;2023-05-10T04:28:15;54.52;39.80;69.53;;
186;Laerm;55473;48.800;9.002;2023-05-10T04:30:40;54.23;40.49;67.24;;
186;Laerm;55473;48.800;9.002;2023-05-10T04:33:06;55.00;40.53;69.24;;
186;Laerm;55473;48.800;9.002;2023-05-10T04:35:32;54.50;40.11;70.49;;
186;Laerm;55473;48.800;9.002;2023-05-10T04:37:59;53.68;39.19;68.57;;
186;Laerm;55473;48.800;9.002;2023-05-10T04:40:26;51.54;40.30;65.75;;
186;Laerm;55473;48.800;9.002;2023-05-10T04:42:52;53.54;40.45;68.49;;
186;Laerm;55473;48.800;9.002;2023-05-10T04:45:17;54.28;44.27;71.33;;
186;Laerm;55473;48.800;9.002;2023-05-10T04:47:43;50.92;42.56;64.59;;
186;Laerm;55473;48.800;9.002;2023-05-10T04:50:09;48.50;40.97;65.13;;
186;Laerm;55473;48.800;9.002;2023-05-10T04:52:35;53.11;39.73;64.93;;
186;Laerm;55473;48.800;9.002;2023-05-10T04:55:02;50.14;39.58;65.38;;
186;Laerm;55473;48.800;9.002;2023-05-10T04:57:27;48.98;40.14;61.13;;
186;Laerm;55473;48.800;9.002;2023-05-10T04:59:53;50.93;41.45;69.22;;
186;Laerm;55473;48.800;9.002;2023-05-10T05:02:19;50.95;42.05;65.22;;
186;Laerm;55473;48.800;9.002;2023-05-10T05:04:45;53.59;42.72;64.19;;
186;Laerm;55473;48.800;9.002;2023-05-10T05:07:11;48.94;40.87;61.79;;
186;Laerm;55473;48.800;9.002;2023-05-10T05:09:37;50.10;41.04;62.20;;
186;Laerm;55473;48.800;9.002;2023-05-10T05:12:03;56.43;42.44;67.45;;
186;Laerm;55473;48.800;9.002;2023-05-10T05:14:29;54.72;41.64;74.58;;
186;Laerm;55473;48.800;9.002;2023-05-10T05:16:55;52.58;41.07;67.89;;
186;Laerm;55473;48.800;9.002;2023-05-10T05:19:22;55.00;41.74;68.84;;
186;Laerm;55473;48.800;9.002;2023-05-10T05:21:48;55.55;41.50;70.52;;
186;Laerm;55473;48.800;9.002;2023-05-10T05:24:14;53.46;40.00;66.78;;
186;Laerm;55473;48.800;9.002;2023-05-10T05:26:40;53.19;40.96;67.56;;
186;Laerm;55473;48.800;9.002;2023-05-10T05:29:06;51.90;42.79;67.16;;
186;Laerm;55473;48.800;9.002;2023-05-10T05:31:31;51.36;41.96;66.02;;
186;Laerm;55473;48.800;9.002;2023-05-10T05:33:57;51.99;42.14;69.42;;
186;Laerm;55473;48.800;9.002;2023-05-10T05:36:23;50.77;41.55;67.96;;
186;Laerm;55473;48.800;9.002;2023-05-10T05:38:49;50.74;42.64;66.69;;
186;Laerm;55473;48.800;9.002;2023-05-10T05:41:16;53.48;44.08;68.94;;
186;Laerm;55473;48.800;9.002;2023-05-10T05:43:42;54.33;43.64;67.72;;
186;Laerm;55473;48.800;9.002;2023-05-10T05:46:07;51.86;41.01;67.65;;
186;Laerm;55473;48.800;9.002;2023-05-10T05:48:33;50.71;42.48;60.11;;
186;Laerm;55473;48.800;9.002;2023-05-10T05:50:59;50.13;40.61;63.46;;
186;Laerm;55473;48.800;9.002;2023-05-10T05:53:25;51.60;39.56;68.03;;
186;Laerm;55473;48.800;9.002;2023-05-10T05:55:56;50.91;40.96;63.47;;
186;Laerm;55473;48.800;9.002;2023-05-10T05:58:24;50.73;39.85;67.03;;
186;Laerm;55473;48.800;9.002;2023-05-10T06:00:51;52.18;40.05;68.97;;
186;Laerm;55473;48.800;9.002;2023-05-10T06:03:18;52.82;40.42;66.47;;
186;Laerm;55473;48.800;9.002;2023-05-10T06:05:44;53.85;41.96;65.75;;
186;Laerm;55473;48.800;9.002;2023-05-10T06:08:10;53.01;40.00;69.39;;
186;Laerm;55473;48.800;9.002;2023-05-10T06:10:36;53.49;41.22;68.94;;
186;Laerm;55473;48.800;9.002;2023-05-10T06:13:02;54.33;40.48;75.13;;
186;Laerm;55473;48.800;9.002;2023-05-10T06:15:28;54.15;41.02;67.43;;
186;Laerm;55473;48.800;9.002;2023-05-10T06:17:54;54.34;42.01;68.28;;
186;Laerm;55473;48.800;9.002;2023-05-10T06:20:21;53.47;40.90;69.19;;
186;Laerm;55473;48.800;9.002;2023-05-10T06:22:47;53.09;41.64;68.61;;
186;Laerm;55473;48.800;9.002;2023-05-10T06:25:13;51.64;41.21;64.86;;
186;Laerm;55473;48.800;9.002;2023-05-10T06:27:40;47.39;41.73;60.52;;
186;Laerm;55473;48.800;9.002;2023-05-10T06:30:07;48.99;41.41;67.61;;
186;Laerm;55473;48.800;9.002;2023-05-10T06:32:33;51.46;41.81;65.20;;
186;Laerm;55473;48.800;9.002;2023-05-10T06:34:59;53.19;41.87;66.84;;
186;Laerm;55473;48.800;9.002;2023-05-10T06:37:25;48.33;41.46;61.50;;
186;Laerm;55473;48.800;9.002;2023-05-10T06:39:51;51.57;40.92;66.06;;
186;Laerm;55473;48.800;9.002;2023-05-10T06:42:17;54.80;40.10;67.66;;
186;Laerm;55473;48.800;9.002;2023-05-10T06:44:43;55.08;42.02;67.95;;
186;Laerm;55473;48.800;9.002;2023-05-10T06:47:09;50.75;41.29;64.54;;
186;Laerm;55473;48.800;9.002;2023-05-10T06:49:35;51.53;42.09;64.55;;
186;Laerm;55473;48.800;9.002;2023-05-10T06:52:01;49.08;40.25;62.43;;
186;Laerm;55473;48.800;9.002;2023-05-10T06:54:28;50.08;39.83;71.79;;
186;Laerm;55473;48.800;9.002;2023-05-10T06:56:54;47.78;40.85;69.12;;
186;Laerm;55473;48.800;9.002;2023-05-10T06:59:20;48.16;43.42;60.84;;
186;Laerm;55473;48.800;9.002;2023-05-10T07:01:47;53.76;42.80;63.94;;
186;Laerm;55473;48.800;9.002;2023-05-10T07:04:14;51.86;42.37;65.94;;
186;Laerm;55473;48.800;9.002;2023-05-10T07:06:40;51.01;39.47;71.66;;
186;Laerm;55473;48.800;9.002;2023-05-10T07:09:06;45.65;40.20;62.73;;
186;Laerm;55473;48.800;9.002;2023-05-10T07:11:33;53.70;41.06;61.08;;
186;Laerm;55473;48.800;9.002;2023-05-10T07:13:59;45.69;39.66;55.35;;
186;Laerm;55473;48.800;9.002;2023-05-10T07:16:26;47.41;39.99;60.39;;
186;Laerm;55473;48.800;9.002;2023-05-10T07:18:52;53.13;40.74;65.46;;
186;Laerm;55473;48.800;9.002;2023-05-10T07:21:19;47.95;40.40;60.46;;
186;Laerm;55473;48.800;9.002;2023-05-10T07:23:45;50.27;44.64;58.27;;
186;Laerm;55473;48.800;9.002;2023-05-10T07:26:14;48.32;39.74;61.69;;
186;Laerm;55473;48.800;9.002;2023-05-10T07:28:40;44.57;39.05;66.52;;
186;Laerm;55473;48.800;9.002;2023-05-10T07:31:06;51.40;39.48;68.50;;
186;Laerm;55473;48.800;9.002;2023-05-10T07:33:32;48.82;40.22;72.77;;
186;Laerm;55473;48.800;9.002;2023-05-10T07:35:58;44.58;38.95;65.61;;
186;Laerm;55473;48.800;9.002;2023-05-10T07:38:24;46.59;39.67;71.40;;
186;Laerm;55473;48.800;9.002;2023-05-10T07:40:52;44.75;39.60;60.20;;
186;Laerm;55473;48.800;9.002;2023-05-10T07:43:21;46.91;39.83;57.52;;
186;Laerm;55473;48.800;9.002;2023-05-10T07:45:49;51.90;40.57;72.30;;
186;Laerm;55473;48.800;9.002;2023-05-10T07:48:15;48.18;40.69;61.74;;
186;Laerm;55473;48.800;9.002;2023-05-10T07:50:41;46.53;40.08;58.55;;
186;Laerm;55473;48.800;9.002;2023-05-10T07:53:07;44.32;39.52;68.52;;
186;Laerm;55473;48.800;9.002;2023-05-10T07:55:33;45.22;39.28;68.47;;
186;Laerm;55473;48.800;9.002;2023-05-10T07:57:59;45.78;40.30;65.42;;
186;Laerm;55473;48.800;9.002;2023-05-10T08:00:26;49.41;40.44;70.98;;
186;Laerm;55473;48.800;9.002;2023-05-10T08:02:52;50.47;41.42;61.96;;
186;Laerm;55473;48.800;9.002;2023-05-10T08:05:21;44.69;39.55;57.23;;
186;Laerm;55473;48.800;9.002;2023-05-10T08:07:47;46.40;38.88;64.36;;
186;Laerm;55473;48.800;9.002;2023-05-10T08:10:14;43.83;39.26;53.34;;
186;Laerm;55473;48.800;9.002;2023-05-10T08:12:40;44.13;39.06;61.25;;
186;Laerm;55473;48.800;9.002;2023-05-10T08:15:06;47.59;40.80;60.71;;
186;Laerm;55473;48.800;9.002;2023-05-10T08:17:32;48.98;41.27;61.34;;
186;Laerm;55473;48.800;9.002;2023-05-10T08:19:58;50.49;41.70;71.11;;
186;Laerm;55473;48.800;9.002;2023-05-10T08:22:24;51.81;41.91;64.77;;
186;Laerm;55473;48.800;9.002;2023-05-10T08:24:50;49.40;42.49;60.35;;
186;Laerm;55473;48.800;9.002;2023-05-10T08:27:16;45.80;39.02;56.15;;
186;Laerm;55473;48.800;9.002;2023-05-10T08:29:41;44.81;39.28;61.46;;
186;Laerm;55473;48.800;9.002;2023-05-10T08:32:07;46.89;39.29;62.73;;
186;Laerm;55473;48.800;9.002;2023-05-10T08:34:33;49.94;40.72;64.35;;
186;Laerm;55473;48.800;9.002;2023-05-10T08:36:59;50.98;40.45;66.16;;
186;Laerm;55473;48.800;9.002;2023-05-10T08:39:25;48.49;40.21;63.64;;
186;Laerm;55473;48.800;9.002;2023-05-10T08:41:53;49.39;40.07;64.21;;
186;Laerm;55473;48.800;9.002;2023-05-10T08:44:21;52.41;40.24;67.88;;
186;Laerm;55473;48.800;9.002;2023-05-10T08:46:53;53.62;40.43;69.55;;
186;Laerm;55473;48.800;9.002;2023-05-10T08:49:20;53.47;40.09;70.11;;
186;Laerm;55473;48.800;9.002;2023-05-10T08:51:54;51.66;40.65;68.76;;
186;Laerm;55473;48.800;9.002;2023-05-10T08:54:21;53.19;40.95;68.31;;
186;Laerm;55473;48.800;9.002;2023-05-10T08:56:47;54.23;41.51;70.80;;
186;Laerm;55473;48.800;9.002;2023-05-10T08:59:14;54.16;40.05;70.30;;
186;Laerm;55473;48.800;9.002;2023-05-10T09:01:44;56.99;40.85;66.58;;
186;Laerm;55473;48.800;9.002;2023-05-10T09:04:11;50.27;40.17;61.44;;
186;Laerm;55473;48.800;9.002;2023-05-10T09:06:37;49.15;41.45;69.44;;
186;Laerm;55473;48.800;9.002;2023-05-10T09:09:04;44.83;39.82;54.92;;
186;Laerm;55473;48.800;9.002;2023-05-10T09:11:31;45.91;40.03;58.03;;
186;Laerm;55473;48.800;9.002;2023-05-10T09:13:57;46.49;40.91;59.01;;
186;Laerm;55473;48.800;9.002;2023-05-10T09:16:24;46.95;40.86;59.71;;
186;Laerm;55473;48.800;9.002;2023-05-10T09:18:50;55.30;42.31;66.42;;
186;Laerm;55473;48.800;9.002;2023-05-10T09:21:19;55.82;40.31;81.05;;
186;Laerm;55473;48.800;9.002;2023-05-10T09:24:07;45.68;38.66;59.48;;
186;Laerm;55473;48.800;9.002;2023-05-10T09:26:35;49.62;39.41;62.93;;
186;Laerm;55473;48.800;9.002;2023-05-10T09:29:02;53.58;41.15;70.16;;
186;Laerm;55473;48.800;9.002;2023-05-10T09:31:45;44.73;40.34;55.77;;
186;Laerm;55473;48.800;9.002;2023-05-10T09:34:20;57.80;45.54;70.36;;
186;Laerm;55473;48.800;9.002;2023-05-10T09:36:59;58.81;43.62;68.65;;
186;Laerm;55473;48.800;9.002;2023-05-10T09:39:37;56.75;40.43;68.22;;
186;Laerm;55473;48.800;9.002;2023-05-10T09:42:09;49.12;40.25;68.36;;
186;Laerm;55473;48.800;9.002;2023-05-10T09:44:41;48.21;41.21;68.65;;
186;Laerm;55473;48.800;9.002;2023-05-10T09:47:09;47.46;41.03;62.43;;
186;Laerm;55473;48.800;9.002;2023-05-10T09:49:35;59.59;42.12;69.99;;
186;Laerm;55473;48.800;9.002;2023-05-10T09:52:06;57.51;41.50;66.61;;
186;Laerm;55473;48.800;9.002;2023-05-10T09:54:34;44.83;38.67;61.74;;
186;Laerm;55473;48.800;9.002;2023-05-10T09:57:01;46.75;40.36;65.37;;
186;Laerm;55473;48.800;9.002;2023-05-10T09:59:29;49.21;40.53;66.05;;
186;Laerm;55473;48.800;9.002;2023-05-10T10:01:59;49.59;40.84;63.30;;
186;Laerm;55473;48.800;9.002;2023-05-10T10:04:26;50.12;40.87;64.34;;
186;Laerm;55473;48.800;9.002;2023-05-10T10:07:03;50.64;40.20;64.64;;
186;Laerm;55473;48.800;9.002;2023-05-10T10:09:31;48.62;40.66;67.99;;
186;Laerm;55473;48.800;9.002;2023-05-10T10:11:57;55.21;41.48;72.32;;
186;Laerm;55473;48.800;9.002;2023-05-10T10:14:23;48.59;41.22;67.15;;
186;Laerm;55473;48.800;9.002;2023-05-10T10:16:50;47.78;40.52;63.47;;
186;Laerm;55473;48.800;9.002;2023-05-10T10:19:19;46.94;40.67;64.40;;
186;Laerm;55473;48.800;9.002;2023-05-10T10:21:46;51.05;40.08;73.93;;
186;Laerm;55473;48.800;9.002;2023-05-10T10:24:12;47.12;38.88;62.51;;
186;Laerm;55473;48.800;9.002;2023-05-10T10:26:39;48.40;40.61;66.17;;
186;Laerm;55473;48.800;9.002;2023-05-10T10:29:41;48.81;39.63;67.25;;
186;Laerm;55473;48.800;9.002;2023-05-10T10:35:15;51.39;42.46;66.72;;
186;Laerm;55473;48.800;9.002;2023-05-10T10:37:47;46.26;41.79;58.80;;
186;Laerm;55473;48.800;9.002;2023-05-10T10:40:32;50.36;42.94;64.03;;
186;Laerm;55473;48.800;9.002;2023-05-10T10:43:26;47.18;40.48;59.34;;
186;Laerm;55473;48.800;9.002;2023-05-10T10:48:49;47.45;40.87;60.47;;
186;Laerm;55473;48.800;9.002;2023-05-10T10:51:17;57.00;40.80;74.74;;
186;Laerm;55473;48.800;9.002;2023-05-10T10:53:43;45.77;41.00;62.73;;
186;Laerm;55473;48.800;9.002;2023-05-10T10:56:13;51.24;41.80;66.66;;
186;Laerm;55473;48.800;9.002;2023-05-10T10:58:42;47.57;41.72;58.24;;
186;Laerm;55473;48.800;9.002;2023-05-10T11:01:18;54.02;44.05;72.52;;
186;Laerm;55473;48.800;9.002;2023-05-10T11:09:08;59.75;43.33;76.40;;
186;Laerm;55473;48.800;9.002;2023-05-10T11:11:36;57.15;41.53;76.52;;
186;Laerm;55473;48.800;9.002;2023-05-10T11:14:04;51.24;43.18;64.43;;
186;Laerm;55473;48.800;9.002;2023-05-10T11:16:44;55.24;41.72;69.79;;
186;Laerm;55473;48.800;9.002;2023-05-10T11:19:15;49.63;41.63;61.64;;
186;Laerm;55473;48.800;9.002;2023-05-10T11:22:11;52.76;40.07;79.06;;
186;Laerm;55473;48.800;9.002;2023-05-10T11:24:38;58.95;40.79;75.98;;
186;Laerm;55473;48.800;9.002;2023-05-10T11:27:05;51.84;40.32;69.38;;
186;Laerm;55473;48.800;9.002;2023-05-10T11:29:31;49.69;40.82;62.51;;
186;Laerm;55473;48.800;9.002;2023-05-10T11:31:59;62.69;42.35;75.64;;
186;Laerm;55473;48.800;9.002;2023-05-10T11:34:30;51.21;40.82;63.69;;
186;Laerm;55473;48.800;9.002;2023-05-10T11:36:59;46.27;40.40;58.55;;
186;Laerm;55473;48.800;9.002;2023-05-10T11:39:28;51.84;43.24;66.06;;
186;Laerm;55473;48.800;9.002;2023-05-10T11:41:55;52.00;43.20;66.25;;
186;Laerm;55473;48.800;9.002;2023-05-10T11:44:21;54.04;43.43;73.53;;
186;Laerm;55473;48.800;9.002;2023-05-10T11:46:47;61.87;43.78;74.73;;
186;Laerm;55473;48.800;9.002;2023-05-10T11:49:14;48.88;44.26;58.35;;
186;Laerm;55473;48.800;9.002;2023-05-10T11:51:40;58.85;42.00;75.34;;
186;Laerm;55473;48.800;9.002;2023-05-10T11:54:11;51.62;44.08;61.76;;
186;Laerm;55473;48.800;9.002;2023-05-10T11:56:41;50.82;41.38;64.54;;
186;Laerm;55473;48.800;9.002;2023-05-10T11:59:07;52.67;40.08;70.80;;
186;Laerm;55473;48.800;9.002;2023-05-10T12:01:34;56.41;39.07;73.44;;
186;Laerm;55473;48.800;9.002;2023-05-10T12:04:01;61.44;40.60;75.96;;
186;Laerm;55473;48.800;9.002;2023-05-10T12:06:31;60.19;41.20;72.14;;
186;Laerm;55473;48.800;9.002;2023-05-10T12:08:58;57.12;40.82;72.20;;
186;Laerm;55473;48.800;9.002;2023-05-10T12:11:26;50.33;39.81;64.84;;
186;Laerm;55473;48.800;9.002;2023-05-10T12:13:53;50.01;42.71;63.73;;
186;Laerm;55473;48.800;9.002;2023-05-10T12:16:24;52.87;41.51;70.90;;
186;Laerm;55473;48.800;9.002;2023-05-10T12:18:53;56.63;40.94;69.89;;
186;Laerm;55473;48.800;9.002;2023-05-10T12:21:20;48.26;41.62;58.82;;
186;Laerm;55473;48.800;9.002;2023-05-10T12:23:51;49.59;40.35;65.18;;
186;Laerm;55473;48.800;9.002;2023-05-10T12:26:17;45.34;39.96;58.94;;
186;Laerm;55473;48.800;9.002;2023-05-10T12:28:44;46.58;39.84;57.17;;
186;Laerm;55473;48.800;9.002;2023-05-10T12:31:10;44.03;39.43;54.33;;
186;Laerm;55473;48.800;9.002;2023-05-10T12:33:44;46.20;40.09;56.49;;
186;Laerm;55473;48.800;9.002;2023-05-10T12:36:15;43.09;39.05;56.10;;
186;Laerm;55473;48.800;9.002;2023-05-10T12:38:44;46.45;38.91;70.59;;
186;Laerm;55473;48.800;9.002;2023-05-10T12:41:16;48.12;38.79;64.25;;
186;Laerm;55473;48.800;9.002;2023-05-10T12:43:43;49.27;41.57;63.34;;
186;Laerm;55473;48.800;9.002;2023-05-10T12:46:14;48.64;40.98;63.74;;
186;Laerm;55473;48.800;9.002;2023-05-10T12:48:44;53.38;42.84;62.39;;
186;Laerm;55473;48.800;9.002;2023-05-10T12:51:11;59.86;46.42;68.78;;
186;Laerm;55473;48.800;9.002;2023-05-10T12:53:39;58.67;40.85;68.92;;
186;Laerm;55473;48.800;9.002;2023-05-10T12:56:06;52.90;38.93;68.42;;
186;Laerm;55473;48.800;9.002;2023-05-10T12:58:34;53.19;39.76;69.22;;
186;Laerm;55473;48.800;9.002;2023-05-10T13:01:01;51.07;40.13;69.93;;
186;Laerm;55473;48.800;9.002;2023-05-10T13:03:27;49.29;42.15;62.26;;
186;Laerm;55473;48.800;9.002;2023-05-10T13:05:53;49.60;41.13;68.79;;
186;Laerm;55473;48.800;9.002;2023-05-10T13:08:19;51.09;39.83;69.07;;
186;Laerm;55473;48.800;9.002;2023-05-10T13:10:45;49.14;40.42;62.51;;
186;Laerm;55473;48.800;9.002;2023-05-10T13:13:11;45.94;40.97;59.07;;
186;Laerm;55473;48.800;9.002;2023-05-10T13:15:37;48.05;41.33;61.84;;
186;Laerm;55473;48.800;9.002;2023-05-10T13:18:05;48.63;40.90;66.69;;
186;Laerm;55473;48.800;9.002;2023-05-10T13:20:31;47.51;39.24;68.26;;
186;Laerm;55473;48.800;9.002;2023-05-10T13:22:57;53.12;38.88;66.16;;
186;Laerm;55473;48.800;9.002;2023-05-10T13:25:23;46.04;39.62;60.08;;
186;Laerm;55473;48.800;9.002;2023-05-10T13:27:50;49.00;41.40;68.40;;
186;Laerm;55473;48.800;9.002;2023-05-10T13:30:16;47.35;41.12;66.88;;
186;Laerm;55473;48.800;9.002;2023-05-10T13:32:43;49.05;40.45;63.13;;
186;Laerm;55473;48.800;9.002;2023-05-10T13:35:10;49.87;40.59;71.17;;
186;Laerm;55473;48.800;9.002;2023-05-10T13:37:36;58.71;40.19;85.02;;
186;Laerm;55473;48.800;9.002;2023-05-10T13:40:04;51.54;41.41;67.56;;
186;Laerm;55473;48.800;9.002;2023-05-10T13:42:34;50.70;41.70;65.90;;
186;Laerm;55473;48.800;9.002;2023-05-10T13:45:01;51.51;41.05;68.59;;
186;Laerm;55473;48.800;9.002;2023-05-10T13:47:30;52.31;40.82;64.79;;
186;Laerm;55473;48.800;9.002;2023-05-10T13:49:57;51.43;42.21;64.94;;
186;Laerm;55473;48.800;9.002;2023-05-10T13:52:24;54.10;41.06;66.30;;
186;Laerm;55473;48.800;9.002;2023-05-10T13:54:50;51.84;41.45;64.85;;
186;Laerm;55473;48.800;9.002;2023-05-10T13:57:18;49.74;39.72;67.40;;
186;Laerm;55473;48.800;9.002;2023-05-10T13:59:44;50.93;40.05;65.21;;
186;Laerm;55473;48.800;9.002;2023-05-10T14:02:11;49.23;39.37;62.18;;
186;Laerm;55473;48.800;9.002;2023-05-10T14:04:39;46.41;39.56;61.98;;
186;Laerm;55473;48.800;9.002;2023-05-10T14:07:05;44.75;40.51;54.72;;
186;Laerm;55473;48.800;9.002;2023-05-10T14:09:31;49.52;39.56;67.80;;
186;Laerm;55473;48.800;9.002;2023-05-10T14:11:57;45.25;40.03;57.04;;
186;Laerm;55473;48.800;9.002;2023-05-10T14:14:24;49.08;39.17;65.91;;
186;Laerm;55473;48.800;9.002;2023-05-10T14:16:51;50.79;39.42;65.59;;
186;Laerm;55473;48.800;9.002;2023-05-10T14:19:36;51.11;40.91;65.49;;
186;Laerm;55473;48.800;9.002;2023-05-10T14:22:22;51.88;40.24;64.53;;
186;Laerm;55473;48.800;9.002;2023-05-10T14:24:58;51.42;39.33;65.49;;
186;Laerm;55473;48.800;9.002;2023-05-10T14:27:35;46.78;38.67;74.05;;
186;Laerm;55473;48.800;9.002;2023-05-10T14:30:07;51.77;38.44;63.51;;
186;Laerm;55473;48.800;9.002;2023-05-10T14:32:36;50.54;38.70;63.65;;
186;Laerm;55473;48.800;9.002;2023-05-10T14:35:04;48.50;39.10;63.62;;
186;Laerm;55473;48.800;9.002;2023-05-10T14:37:33;44.96;39.08;58.57;;
186;Laerm;55473;48.800;9.002;2023-05-10T14:39:59;46.63;40.23;54.37;;
186;Laerm;55473;48.800;9.002;2023-05-10T14:42:27;46.48;39.50;61.62;;
186;Laerm;55473;48.800;9.002;2023-05-10T14:44:54;48.35;40.55;58.31;;
186;Laerm;55473;48.800;9.002;2023-05-10T14:47:21;50.30;38.99;66.02;;
186;Laerm;55473;48.800;9.002;2023-05-10T14:49:48;54.98;39.40;76.92;;